Time,TemperatureF,DewpointF,PressureIn,WindDirection,WindDirectionDegrees,WindSpeedMPH,WindSpeedGustMPH,Humidity,HourlyPrecipIn,Conditions,Clouds,dailyrainin,SoftwareType,DateUTC
2013-06-12 00:13:00,77.0,74.0,-100.00,WNW,286,6.0,-999.0,90,-99.99,,,-99.99,,2013-06-12 04:13:00,
2013-06-12 00:23:00,77.0,74.0,-100.00,WNW,286,6.0,-999.0,90,0.00,,,-99.99,,2013-06-12 04:23:00,
2013-06-12 00:34:00,77.0,74.0,-100.00,WNW,286,6.0,-999.0,90,0.00,,,-99.99,,2013-06-12 04:34:00,
2013-06-12 00:42:00,77.0,74.0,-100.00,WNW,286,6.0,-999.0,90,0.00,,,-99.99,,2013-06-12 04:42:00,
2013-06-12 01:12:00,77.0,74.0,-100.00,West,259,6.0,-999.0,93,0.00,,,-99.99,,2013-06-12 05:12:00,
2013-06-12 01:22:00,77.0,74.0,-100.00,West,259,6.0,-999.0,93,0.00,,,-99.99,,2013-06-12 05:22:00,
2013-06-12 01:32:00,77.0,74.0,-100.00,West,259,6.0,-999.0,93,0.00,,,-99.99,,2013-06-12 05:32:00,
2013-06-12 01:42:00,77.0,74.0,-100.00,West,259,6.0,-999.0,93,0.00,,,-99.99,,2013-06-12 05:42:00,
2013-06-12 02:12:00,76.0,75.0,-100.00,WNW,285,3.0,-999.0,96,0.00,,,-99.99,,2013-06-12 06:12:00,
2013-06-12 02:22:00,76.0,75.0,-100.00,WNW,285,3.0,-999.0,96,0.00,,,-99.99,,2013-06-12 06:22:00,
2013-06-12 02:32:00,76.0,75.0,-100.00,WNW,285,3.0,-999.0,96,0.00,,,-99.99,,2013-06-12 06:32:00,
2013-06-12 02:42:00,76.0,75.0,-100.00,WNW,285,3.0,-999.0,96,0.00,,,-99.99,,2013-06-12 06:42:00,
2013-06-12 03:22:00,76.0,74.0,-100.00,West,260,1.0,-999.0,96,0.00,,,-99.99,,2013-06-12 07:22:00,
2013-06-12 03:33:00,76.0,74.0,-100.00,West,260,1.0,-999.0,96,0.00,,,-99.99,,2013-06-12 07:33:00,
2013-06-12 03:43:00,76.0,74.0,-100.00,West,260,1.0,-999.0,96,0.00,,,-99.99,,2013-06-12 07:43:00,
2013-06-12 04:22:00,75.0,74.0,-100.00,NW,305,1.0,-999.0,97,0.00,,,-99.99,,2013-06-12 08:22:00,
2013-06-12 04:33:00,75.0,74.0,-100.00,NW,305,1.0,-999.0,97,0.00,,,-99.99,,2013-06-12 08:33:00,
2013-06-12 04:43:00,75.0,74.0,-100.00,NW,305,1.0,-999.0,97,0.00,,,-99.99,,2013-06-12 08:43:00,
2013-06-12 05:22:00,74.0,73.0,-100.00,WNW,298,2.0,-999.0,98,0.00,,,-99.99,,2013-06-12 09:22:00,
2013-06-12 05:33:00,74.0,73.0,-100.00,WNW,298,2.0,-999.0,98,0.00,,,-99.99,,2013-06-12 09:33:00,
2013-06-12 05:43:00,74.0,73.0,-100.00,WNW,298,2.0,-999.0,98,0.00,,,-99.99,,2013-06-12 09:43:00,
2013-06-12 06:23:00,74.0,73.0,-100.00,NW,310,1.0,-999.0,98,0.00,,,-99.99,,2013-06-12 10:23:00,
2013-06-12 06:33:00,74.0,73.0,-100.00,NW,310,1.0,-999.0,98,0.00,,,-99.99,,2013-06-12 10:33:00,
2013-06-12 06:43:00,74.0,73.0,-100.00,NW,310,1.0,-999.0,98,0.00,,,-99.99,,2013-06-12 10:43:00,
2013-06-12 07:24:00,74.0,73.0,-100.00,WNW,296,1.0,-999.0,97,0.00,,,-99.99,,2013-06-12 11:24:00,
2013-06-12 07:33:00,74.0,73.0,-100.00,WNW,296,1.0,-999.0,97,0.00,,,-99.99,,2013-06-12 11:33:00,
2013-06-12 07:43:00,74.0,73.0,-100.00,WNW,296,1.0,-999.0,97,0.00,,,-99.99,,2013-06-12 11:43:00,
2013-06-12 08:23:00,77.0,75.0,-100.00,NW,310,3.0,-999.0,95,0.00,,,-99.99,,2013-06-12 12:23:00,
2013-06-12 08:33:00,77.0,75.0,-100.00,NW,310,3.0,-999.0,95,0.00,,,-99.99,,2013-06-12 12:33:00,
2013-06-12 08:43:00,77.0,75.0,-100.00,NW,310,3.0,-999.0,95,0.00,,,-99.99,,2013-06-12 12:43:00,
2013-06-12 09:22:00,81.0,75.0,-100.00,NW,312,3.0,-999.0,83,0.00,,,-99.99,,2013-06-12 13:22:00,
2013-06-12 09:33:00,81.0,75.0,-100.00,NW,312,3.0,-999.0,83,0.00,,,-99.99,,2013-06-12 13:33:00,
2013-06-12 09:43:00,81.0,75.0,-100.00,NW,312,3.0,-999.0,83,0.00,,,-99.99,,2013-06-12 13:43:00,
2013-06-12 10:24:00,84.0,76.0,-100.00,SW,227,2.0,-999.0,76,0.00,,,-99.99,,2013-06-12 14:24:00,
2013-06-12 10:33:00,84.0,76.0,-100.00,SW,227,2.0,-999.0,76,0.00,,,-99.99,,2013-06-12 14:33:00,
2013-06-12 10:43:00,84.0,76.0,-100.00,SW,227,2.0,-999.0,76,0.00,,,-99.99,,2013-06-12 14:43:00,
2013-06-12 11:23:00,86.0,76.0,-100.00,WNW,295,2.0,-999.0,70,0.00,,,-99.99,,2013-06-12 15:23:00,
2013-06-12 11:33:00,86.0,76.0,-100.00,WNW,295,2.0,-999.0,70,0.00,,,-99.99,,2013-06-12 15:33:00,
2013-06-12 11:43:00,86.0,76.0,-100.00,WNW,295,2.0,-999.0,70,0.00,,,-99.99,,2013-06-12 15:43:00,
2013-06-12 12:22:00,85.0,76.0,-100.00,SSE,147,9.0,-999.0,74,0.00,,,-99.99,,2013-06-12 16:22:00,
2013-06-12 12:33:00,85.0,76.0,-100.00,SSE,147,9.0,-999.0,74,0.00,,,-99.99,,2013-06-12 16:33:00,
2013-06-12 12:43:00,85.0,76.0,-100.00,SSE,147,9.0,-999.0,74,0.00,,,-99.99,,2013-06-12 16:43:00,
2013-06-12 13:23:00,85.0,77.0,-100.00,SSE,152,9.0,-999.0,79,0.00,,,-99.99,,2013-06-12 17:23:00,
2013-06-12 13:33:00,85.0,77.0,-100.00,SSE,152,9.0,-999.0,79,0.00,,,-99.99,,2013-06-12 17:33:00,
2013-06-12 13:42:00,85.0,77.0,-100.00,SSE,152,9.0,-999.0,79,0.00,,,-99.99,,2013-06-12 17:42:00,
2013-06-12 14:12:00,86.0,78.0,-100.00,SSE,160,9.0,-999.0,75,0.00,,,-99.99,,2013-06-12 18:12:00,
2013-06-12 14:22:00,86.0,78.0,-100.00,SSE,160,9.0,-999.0,75,0.00,,,-99.99,,2013-06-12 18:22:00,
2013-06-12 14:33:00,86.0,78.0,-100.00,SSE,160,9.0,-999.0,75,0.00,,,-99.99,,2013-06-12 18:33:00,
2013-06-12 14:43:00,86.0,78.0,-100.00,SSE,160,9.0,-999.0,75,0.00,,,-99.99,,2013-06-12 18:43:00,
2013-06-12 15:22:00,88.0,77.0,-100.00,SSE,167,11.0,-999.0,69,0.00,,,-99.99,,2013-06-12 19:22:00,
2013-06-12 15:32:00,88.0,77.0,-100.00,SSE,167,11.0,-999.0,69,0.00,,,-99.99,,2013-06-12 19:32:00,
2013-06-12 15:42:00,88.0,77.0,-100.00,SSE,167,11.0,-999.0,69,0.00,,,-99.99,,2013-06-12 19:42:00,
2013-06-12 16:22:00,89.0,78.0,-100.00,South,180,10.0,-999.0,70,0.00,,,-99.99,,2013-06-12 20:22:00,
2013-06-12 16:33:00,89.0,78.0,-100.00,South,180,10.0,-999.0,70,0.00,,,-99.99,,2013-06-12 20:33:00,
2013-06-12 16:43:00,89.0,78.0,-100.00,South,180,10.0,-999.0,70,0.00,,,-99.99,,2013-06-12 20:43:00,
2013-06-12 17:12:00,88.0,78.0,-100.00,South,188,12.0,-999.0,71,0.00,,,-99.99,,2013-06-12 21:12:00,
2013-06-12 17:22:00,88.0,78.0,-100.00,South,188,12.0,-999.0,71,0.00,,,-99.99,,2013-06-12 21:22:00,
2013-06-12 17:33:00,88.0,78.0,-100.00,South,188,12.0,-999.0,71,0.00,,,-99.99,,2013-06-12 21:33:00,
2013-06-12 17:43:00,88.0,78.0,-100.00,South,188,12.0,-999.0,71,0.00,,,-99.99,,2013-06-12 21:43:00,
2013-06-12 18:11:00,90.0,76.0,-100.00,SW,230,9.0,-999.0,64,0.00,,,-99.99,,2013-06-12 22:11:00,
2013-06-12 18:22:00,90.0,76.0,-100.00,SW,230,9.0,-999.0,64,0.00,,,-99.99,,2013-06-12 22:22:00,
2013-06-12 18:33:00,90.0,76.0,-100.00,SW,230,9.0,-999.0,64,0.00,,,-99.99,,2013-06-12 22:33:00,
2013-06-12 18:43:00,90.0,76.0,-100.00,SW,230,9.0,-999.0,64,0.00,,,-99.99,,2013-06-12 22:43:00,
2013-06-12 19:12:00,90.0,75.0,-100.00,WSW,241,8.0,-999.0,60,0.00,,,-99.99,,2013-06-12 23:12:00,
2013-06-12 19:22:00,90.0,75.0,-100.00,WSW,241,8.0,-999.0,60,0.00,,,-99.99,,2013-06-12 23:22:00,
2013-06-12 19:32:00,90.0,75.0,-100.00,WSW,241,8.0,-999.0,60,0.00,,,-99.99,,2013-06-12 23:32:00,
2013-06-12 19:42:00,90.0,75.0,-100.00,WSW,241,8.0,-999.0,60,0.00,,,-99.99,,2013-06-12 23:42:00,
2013-06-12 20:22:00,88.0,78.0,-100.00,SW,222,7.0,-999.0,73,0.00,,,-99.99,,2013-06-13 00:22:00,
2013-06-12 20:33:00,88.0,78.0,-100.00,SW,222,7.0,-999.0,73,0.00,,,-99.99,,2013-06-13 00:33:00,
2013-06-12 20:43:00,88.0,78.0,-100.00,SW,222,7.0,-999.0,73,0.00,,,-99.99,,2013-06-13 00:43:00,
2013-06-12 21:22:00,85.0,79.0,-100.00,WSW,238,5.0,-999.0,81,0.00,,,-99.99,,2013-06-13 01:22:00,
2013-06-12 21:33:00,85.0,79.0,-100.00,WSW,238,5.0,-999.0,81,0.00,,,-99.99,,2013-06-13 01:33:00,
2013-06-12 21:43:00,85.0,79.0,-100.00,WSW,238,5.0,-999.0,81,0.00,,,-99.99,,2013-06-13 01:43:00,
2013-06-12 22:22:00,83.0,79.0,-100.00,SW,215,5.0,-999.0,88,0.00,,,-99.99,,2013-06-13 02:22:00,
2013-06-12 22:33:00,83.0,79.0,-100.00,SW,215,5.0,-999.0,88,0.00,,,-99.99,,2013-06-13 02:33:00,
2013-06-12 22:43:00,83.0,79.0,-100.00,SW,215,5.0,-999.0,88,0.00,,,-99.99,,2013-06-13 02:43:00,
2013-06-12 23:22:00,82.0,79.0,-100.00,SW,231,6.0,-999.0,91,0.00,,,-99.99,,2013-06-13 03:22:00,
2013-06-12 23:33:00,82.0,79.0,-100.00,SW,231,6.0,-999.0,91,0.00,,,-99.99,,2013-06-13 03:33:00,
2013-06-12 23:43:00,82.0,79.0,-100.00,SW,231,6.0,-999.0,91,0.00,,,-99.99,,2013-06-13 03:43:00,